createdAt,value
2023-07-25T00:01:21.663Z,18.36
2023-07-25T00:11:24.063Z,18.24
2023-07-25T00:21:26.426Z,18.21
2023-07-25T05:05:09.693Z,18.50
2023-07-25T05:15:12.129Z,19.10
2023-07-25T05:25:14.582Z,19.39
2023-07-25T05:35:17.471Z,19.64
2023-07-25T05:45:20.115Z,19.69
2023-07-25T05:55:22.451Z,19.62
2023-07-25T06:05:24.770Z,19.67
2023-07-25T06:15:29.785Z,20.00
2023-07-25T06:25:32.234Z,20.13
2023-07-25T06:35:34.593Z,20.16
2023-07-25T06:45:36.966Z,20.25
2023-07-25T06:55:39.858Z,20.49
2023-07-25T07:05:42.404Z,20.92
2023-07-25T07:15:49.562Z,21.45
2023-07-25T07:25:52.080Z,21.57
2023-07-25T07:35:54.447Z,21.86
2023-07-25T07:45:58.975Z,22.08
2023-07-25T07:56:05.909Z,22.32
2023-07-25T08:06:08.254Z,22.82
2023-07-25T08:16:11.346Z,23.11
2023-07-25T08:26:14.065Z,23.47
2023-07-25T08:36:16.551Z,23.42
2023-07-25T08:46:20.952Z,23.05
2023-07-25T08:56:24.467Z,22.89
2023-07-25T09:06:27.025Z,23.19
2023-07-25T09:16:29.513Z,23.45
2023-07-25T09:26:32.300Z,23.65
2023-07-25T09:36:34.898Z,23.79
2023-07-25T09:46:37.355Z,23.74
2023-07-25T09:56:39.776Z,23.78
2023-07-25T10:06:43.229Z,23.82
2023-07-25T10:16:46.417Z,23.76
2023-07-25T10:27:00.335Z,23.63
2023-07-25T10:37:45.273Z,23.66
2023-07-25T10:47:49.853Z,23.69
2023-07-25T10:58:11.059Z,23.30
2023-07-25T11:08:13.593Z,23.08
2023-07-25T11:18:15.965Z,23.42
2023-07-25T11:28:18.349Z,24.02
2023-07-25T11:38:20.749Z,24.25
2023-07-25T11:48:26.892Z,23.99
2023-07-25T11:58:30.152Z,24.17
2023-07-25T12:08:38.909Z,24.39
2023-07-25T12:18:42.406Z,24.22
2023-07-25T12:28:46.438Z,24.00
2023-07-25T12:38:49.335Z,24.14
2023-07-25T12:48:52.216Z,24.89
2023-07-25T12:58:56.402Z,25.32
2023-07-25T13:08:59.572Z,24.79
2023-07-25T13:19:02.570Z,23.95
2023-07-25T13:29:06.371Z,23.58
2023-07-25T13:39:09.175Z,23.45
2023-07-25T13:49:11.967Z,23.45
2023-07-25T13:59:14.611Z,23.91
2023-07-25T14:09:17.996Z,24.19
2023-07-25T14:19:20.705Z,24.69
2023-07-25T14:29:23.466Z,25.17
2023-07-25T14:39:26.260Z,24.85
2023-07-25T14:49:28.933Z,24.56
2023-07-25T14:59:32.458Z,24.57
2023-07-25T15:09:35.426Z,24.75
2023-07-25T15:19:38.421Z,24.79
2023-07-25T15:29:41.216Z,24.46
2023-07-25T15:39:43.946Z,23.92
2023-07-25T15:49:46.695Z,23.30
2023-07-25T15:59:49.534Z,22.57
2023-07-25T16:09:52.368Z,21.75
2023-07-25T16:19:55.265Z,21.14
2023-07-25T16:29:58.442Z,20.76
2023-07-25T16:40:01.181Z,20.46
2023-07-25T16:50:04.418Z,20.26
2023-07-25T17:00:07.828Z,20.09
2023-07-25T17:10:10.870Z,19.94
2023-07-25T17:20:16.000Z,19.77
2023-07-25T17:30:18.694Z,19.67
2023-07-25T17:40:21.452Z,19.48
2023-07-25T17:50:24.238Z,19.23
2023-07-25T18:00:26.944Z,19.03
2023-07-25T18:10:29.835Z,18.80
2023-07-25T18:20:32.668Z,18.61
2023-07-25T18:30:37.546Z,18.39
2023-07-25T18:40:40.722Z,18.18
2023-07-25T18:50:44.949Z,17.97
2023-07-25T19:00:50.612Z,17.81
2023-07-25T19:10:53.603Z,17.64
2023-07-25T19:20:56.455Z,17.51
2023-07-25T19:31:00.101Z,17.43
2023-07-25T19:41:02.973Z,17.32
2023-07-25T19:51:10.833Z,17.22
2023-07-25T20:01:14.498Z,17.11
2023-07-25T20:20:14.631Z,17.00
2023-07-25T20:30:17.325Z,16.97
2023-07-25T20:40:20.300Z,16.91
2023-07-25T20:50:23.126Z,16.85
2023-07-25T21:00:25.880Z,16.83
2023-07-25T21:10:28.631Z,16.78
2023-07-25T21:20:31.343Z,16.70
2023-07-25T21:30:34.183Z,16.62
2023-07-25T21:40:36.840Z,16.53
2023-07-25T21:50:39.540Z,16.46
2023-07-25T22:00:42.446Z,16.38
2023-07-25T22:10:45.143Z,16.31
2023-07-25T22:20:52.283Z,16.28
2023-07-25T22:30:55.789Z,16.16
2023-07-25T22:40:58.475Z,15.91
2023-07-25T22:51:01.212Z,15.64
2023-07-25T23:01:04.188Z,15.43
2023-07-25T23:11:06.921Z,15.22
2023-07-25T23:21:09.634Z,15.01
2023-07-25T23:31:12.400Z,14.83
2023-07-25T23:41:15.106Z,14.64
2023-07-25T23:51:17.977Z,14.54
